Impacts TAF Board INFO
FOR SITUATIONAL AWARENESS. NOT TO BE USED FOR FLIGHT PLANNING PURPOSES.
IDs:

KDCA - Washington/National, VA, US

Issued at 1734 UTC 23 Jan 2018
Updated at 1945 UTC 23 Jan 2018
Potential Impact None Slight Moderate High
Time1852Z 23/20Z 23/21Z 23/22Z 23/23Z 24/00Z 24/01Z 24/02Z 24/03Z 24/04Z 24/05Z 24/06Z 24/07Z 24/08Z>>
Type OBS PRVL PRVL PRVL PRVL PRVL PRVL PRVL PRVL PRVL PRVL PRVL PRVL PRVL
VIS 10 >6 >6 >6 >6 >6 >6 >6 >6 >6 >6 >6 >6 >6
CIG 70 -- -- -- -- -- -- -- -- -- -- -- -- --
Cover BKN SCT SCT SCT SCT SCT SCT SCT FEW FEW FEW FEW FEW FEW
FltCat VFR VFR VFR VFR VFR VFR VFR VFR VFR VFR VFR VFR VFR VFR
WX -- -- -- -- -- -- -- -- -- -- -- -- -- --
WDir 350 280 280 280 280 280 280 280 270 270 270 270 270 270
WSpd 11 13 13 13 13 13 13 13 9 9 9 9 9 9
WGst -- 21 21 21 21 21 21 21 -- -- -- -- -- --

Raw TAF
KDCA 231734Z 2318/2424 01009KT P6SM SCT045
  FM232000 28013G21KT P6SM SCT250
  FM240300 27009KT P6SM FEW250
  FM241500 30012G19KT P6SM SCT050
  FM242200 31012KT P6SM SCT250


Raw METAR
KDCA 231852Z 35011KT 10SM FEW045 BKN070 17/10 A2958 RMK AO2 SLP016 T01720100
KDCA 231752Z 35010KT 10SM FEW028 SCT050 SCT250 19/13 A2958 RMK AO2 SLP015 60006 T01890128 10200 20122 58026
KDCA 231652Z 35003KT 10SM SCT024 BKN045 BKN250 18/14 A2961 RMK AO2 SLP027 T01830139
KDCA 231647Z 31009KT 10SM SCT024 BKN045 BKN250 18/14 A2961 RMK AO2
KDCA 231633Z 31008KT 270V340 10SM BKN024 BKN060 BKN080 19/15 A2961 RMK AO2 T01890150

METAR Board
Radar Display
Forecast Discussion

FOR SITUATIONAL AWARENESS. NOT TO BE USED FOR FLIGHT PLANNING PURPOSES.